New Town, Massachusetts
Current Conditions -  °F | °C
As of 1:54 AM on Sunday 23 Nov 2014 (Local Time) from KBOS Reporting Station
Overcast Overcast  
Wind Chill: 37°   Ceiling: 16000
Heat Index: 44°   Visibility: 10mi
Dew Point: 23°   Wind: 16mph
Humidity: 43%   Direction: 230°SW
Pressure: 30.07"   Gusts: NA
Location:  42.35°N, 71.18°W
Report Text: KBOS 230654Z 23014KT 10SM SCT075 OVC160 07/M05 A3007 RMK AO2 SLP183 T00671050
Loading
Personal Weather Stations






























Interactive Weather Map New forecast layout! Learn more

10-Day Weather Forecast

Advertisements
Track Severe Weather on mobile